Time;durP1;ratioP1;P1;durP2;ratioP2;P2;SDS_P1;SDS_P2;PMS_P1;PMS_P2;Temp;Humidity;BMP_temperature;BMP_pressure;BME280_temperature;BME280_humidity;BME280_pressure;Samples;Min_cycle;Max_cycle;Signal;HPM_P1;HPM_P2
2021/12/11 00:01:26;;;;;;;10.25;6.60;;;;;;;2.87;100.00;100657.06;5071533;28;20051;-34
2021/12/11 00:03:57;;;;;;;8.75;5.82;;;;;;;2.88;100.00;100667.84;5071368;28;20052;-32
2021/12/11 00:06:28;;;;;;;8.75;6.13;;;;;;;2.90;100.00;100659.31;5071228;28;20048;-35
2021/12/11 00:09:11;;;;;;;10.13;6.13;;;;;;;2.91;100.00;100656.31;5071045;28;20444;-34
2021/12/11 00:11:44;;;;;;;9.80;5.90;;;;;;;2.92;100.00;100663.50;5071024;28;20378;-38
2021/12/11 00:14:14;;;;;;;9.02;5.72;;;;;;;2.93;100.00;100662.41;5071549;28;20040;-30
2021/12/11 00:16:44;;;;;;;7.38;5.22;;;;;;;2.94;100.00;100657.72;5070718;28;20406;-37
2021/12/11 00:19:16;;;;;;;8.52;5.22;;;;;;;2.96;100.00;100672.09;5071854;28;20448;-36
2021/12/11 00:21:44;;;;;;;8.32;5.57;;;;;;;2.96;100.00;100666.59;5071190;28;20049;-32
2021/12/11 00:24:15;;;;;;;11.18;7.50;;;;;;;2.96;100.00;100666.59;5071093;28;20049;-35
2021/12/11 00:26:50;;;;;;;14.25;9.27;;;;;;;2.98;100.00;100670.75;5070995;28;20037;-36
2021/12/11 00:29:23;;;;;;;18.35;12.13;;;;;;;2.97;100.00;100674.59;5071283;28;20056;-31
2021/12/11 00:31:54;;;;;;;10.13;7.55;;;;;;;2.97;100.00;100674.59;5070595;28;20048;-32
2021/12/11 00:34:23;;;;;;;10.40;6.80;;;;;;;2.98;100.00;100684.53;5071260;28;20055;-32
2021/12/11 00:36:53;;;;;;;11.27;7.43;;;;;;;3.00;100.00;100689.78;5071033;28;20055;-32
2021/12/11 00:39:22;;;;;;;12.38;7.95;;;;;;;2.99;100.00;100686.22;5070497;28;20048;-38
2021/12/11 00:41:55;;;;;;;11.85;7.45;;;;;;;3.00;100.00;100685.09;5071021;28;20048;-33
2021/12/11 00:44:35;;;;;;;10.18;6.60;;;;;;;3.01;100.00;100695.03;5070548;28;20060;-34
2021/12/11 00:47:11;;;;;;;10.05;6.97;;;;;;;3.00;100.00;100696.13;5070906;28;20041;-30
2021/12/11 00:49:51;;;;;;;12.35;7.70;;;;;;;3.00;100.00;100687.84;5067873;28;20064;-33
2021/12/11 00:52:28;;;;;;;11.65;8.07;;;;;;;3.00;100.00;100700.78;5070056;28;20061;-36
2021/12/11 00:54:56;;;;;;;14.25;8.77;;;;;;;2.97;100.00;100698.56;5069028;28;20072;-34
2021/12/11 00:57:25;;;;;;;16.40;10.27;;;;;;;2.97;100.00;100704.09;5070805;28;20036;-38
2021/12/11 01:00:18;;;;;;;15.15;9.10;;;;;;;2.96;100.00;100717.03;5070901;28;20044;-39
2021/12/11 01:02:47;;;;;;;12.50;8.20;;;;;;;2.93;100.00;100713.94;5067848;28;20052;-35
2021/12/11 01:05:15;;;;;;;13.35;8.70;;;;;;;2.94;100.00;100721.13;5070609;28;20079;-39
2021/12/11 01:07:43;;;;;;;13.30;8.98;;;;;;;2.94;100.00;100718.38;5070673;28;20044;-36
2021/12/11 01:10:15;;;;;;;13.50;9.52;;;;;;;2.95;100.00;100723.63;5070901;28;20044;-35
2021/12/11 01:12:52;;;;;;;16.85;11.30;;;;;;;2.96;100.00;100725.28;5070044;28;20047;-30
2021/12/11 01:15:25;;;;;;;14.38;7.75;;;;;;;2.96;100.00;100733.56;5070093;28;20045;-30
2021/12/11 01:18:04;;;;;;;12.60;7.70;;;;;;;2.97;100.00;100738.00;5070748;28;20045;-36
2021/12/11 01:20:55;;;;;;;10.85;7.95;;;;;;;2.99;100.00;100744.09;5070159;28;20048;-34
2021/12/11 01:23:34;;;;;;;12.80;7.78;;;;;;;2.98;100.00;100745.19;5070294;28;20059;-31
2021/12/11 01:26:04;;;;;;;13.93;9.27;;;;;;;3.00;100.00;100758.69;5074653;28;20044;-33
2021/12/11 01:28:34;;;;;;;12.85;7.90;;;;;;;3.00;100.00;100756.75;5073566;28;20040;-35
2021/12/11 01:31:06;;;;;;;12.32;9.13;;;;;;;3.01;100.00;100758.44;5071755;28;20045;-30
2021/12/11 01:33:34;;;;;;;8.73;5.25;;;;;;;3.04;100.00;100765.34;5073698;28;20146;-32
2021/12/11 01:36:05;;;;;;;13.23;9.55;;;;;;;3.04;100.00;100760.69;5074669;28;20126;-34
2021/12/11 01:38:35;;;;;;;15.32;9.85;;;;;;;3.04;100.00;100771.72;5074374;28;20041;-33
2021/12/11 01:41:06;;;;;;;17.35;10.75;;;;;;;3.04;100.00;100779.97;5073565;28;20045;-32
2021/12/11 01:43:38;;;;;;;15.70;9.60;;;;;;;3.05;100.00;100778.91;5074228;28;20051;-32
2021/12/11 01:46:08;;;;;;;17.00;10.60;;;;;;;3.05;100.00;100784.41;5074155;28;20062;-34
2021/12/11 01:48:39;;;;;;;16.40;10.85;;;;;;;3.07;100.00;100775.88;5072422;28;20093;-33
2021/12/11 01:51:17;;;;;;;16.17;9.57;;;;;;;3.09;100.00;100782.81;5073984;28;20052;-29
2021/12/11 01:53:50;;;;;;;19.58;11.35;;;;;;;3.07;100.00;100779.47;5074313;28;20465;-34
2021/12/11 01:56:21;;;;;;;17.25;11.90;;;;;;;3.09;100.00;100787.50;5073499;28;20045;-33
2021/12/11 01:58:58;;;;;;;19.17;12.00;;;;;;;3.09;100.00;100791.09;5073836;28;20053;-32
2021/12/11 02:01:32;;;;;;;20.48;12.13;;;;;;;3.09;100.00;100799.38;5070684;28;20044;-36
2021/12/11 02:04:01;;;;;;;19.52;11.88;;;;;;;3.10;100.00;100801.03;5072831;28;20057;-31
2021/12/11 02:06:30;;;;;;;18.17;11.23;;;;;;;3.09;100.00;100807.63;5070028;28;20040;-33
2021/12/11 02:08:59;;;;;;;18.67;10.77;;;;;;;3.10;100.00;100800.19;5056453;28;20163;-35
2021/12/11 02:11:30;;;;;;;19.42;10.90;;;;;;;3.10;100.00;100809.31;5072605;28;20058;-34
2021/12/11 02:14:04;;;;;;;21.13;12.65;;;;;;;3.11;100.00;100810.97;5073757;28;20131;-34
2021/12/11 02:16:38;;;;;;;16.92;11.02;;;;;;;3.13;100.00;100813.50;5073281;28;20053;-30
2021/12/11 02:19:09;;;;;;;19.23;11.73;;;;;;;3.15;100.00;100827.84;5073587;28;20571;-37
2021/12/11 02:21:46;;;;;;;17.10;10.85;;;;;;;3.18;100.00;100821.84;5070147;28;20049;-33
2021/12/11 02:24:19;;;;;;;21.80;12.55;;;;;;;3.19;100.00;100829.03;5073164;28;20059;-33
2021/12/11 02:26:47;;;;;;;17.60;11.63;;;;;;;3.20;100.00;100833.44;5069139;28;20052;-34
2021/12/11 02:29:22;;;;;;;16.85;10.77;;;;;;;3.24;100.00;100831.84;5073630;28;20082;-35
2021/12/11 02:31:55;;;;;;;17.92;12.32;;;;;;;3.25;100.00;100827.16;5072258;28;20059;-30
2021/12/11 02:34:27;;;;;;;22.35;12.13;;;;;;;3.28;100.00;100826.66;5073662;28;20135;-34
2021/12/11 02:37:00;;;;;;;19.00;11.65;;;;;;;3.28;100.00;100832.19;5071313;28;20110;-30
2021/12/11 02:39:32;;;;;;;19.20;11.63;;;;;;;3.27;100.00;100836.03;5073443;28;20155;-33
2021/12/11 02:42:05;;;;;;;19.27;10.68;;;;;;;3.28;100.00;100838.53;5072918;28;20143;-37
2021/12/11 02:44:37;;;;;;;17.20;11.25;;;;;;;3.30;100.00;100835.53;5072692;28;20048;-36
2021/12/11 02:47:09;;;;;;;19.73;11.90;;;;;;;3.28;100.00;100833.03;5073297;28;20048;-34
2021/12/11 02:49:41;;;;;;;18.45;11.43;;;;;;;3.31;100.00;100837.19;5073377;28;20055;-34
2021/12/11 02:52:14;;;;;;;18.50;10.52;;;;;;;3.33;100.00;100840.53;5071169;28;20052;-31
2021/12/11 02:54:46;;;;;;;19.83;11.15;;;;;;;3.33;100.00;100837.78;5073186;28;20489;-38
2021/12/11 02:57:17;;;;;;;21.58;11.27;;;;;;;3.35;100.00;100841.13;5073052;28;20059;-36
2021/12/11 02:59:46;;;;;;;20.67;11.95;;;;;;;3.35;100.00;100841.97;5072744;28;20363;-31
2021/12/11 03:02:18;;;;;;;17.60;10.88;;;;;;;3.36;100.00;100840.03;5072612;28;20055;-39
2021/12/11 03:04:51;;;;;;;18.33;11.30;;;;;;;3.39;100.00;100836.78;5072481;28;20056;-38
2021/12/11 03:07:24;;;;;;;19.23;10.82;;;;;;;3.41;100.00;100843.69;5072503;28;20036;-36
2021/12/11 03:09:53;;;;;;;;;;;;;;;3.39;100.00;100856.09;5073437;28;20041;-41
2021/12/11 03:12:22;;;;;;;16.63;10.38;;;;;;;3.38;100.00;100848.91;5071888;28;19975;-39
2021/12/11 03:14:50;;;;;;;16.25;9.55;;;;;;;3.40;100.00;100849.47;5072645;28;20048;-35
2021/12/11 03:17:21;;;;;;;18.00;10.55;;;;;;;3.42;100.00;100844.53;5072245;28;20052;-36
2021/12/11 03:19:51;;;;;;;18.88;11.05;;;;;;;3.42;100.00;100841.78;5071982;28;20116;-33
2021/12/11 03:22:23;;;;;;;19.02;11.50;;;;;;;3.41;100.00;100848.38;5072464;28;20044;-36
2021/12/11 03:24:51;;;;;;;21.98;12.77;;;;;;;3.40;100.00;100846.69;5069805;28;20048;-32
2021/12/11 03:27:21;;;;;;;19.35;11.30;;;;;;;3.36;100.00;100846.41;5071575;28;20044;-39
2021/12/11 03:29:48;;;;;;;19.17;11.40;;;;;;;3.35;100.00;100841.97;5071337;28;20067;-31
2021/12/11 03:32:17;;;;;;;21.75;12.43;;;;;;;3.34;100.00;100842.22;5072210;28;20436;-37
2021/12/11 03:34:47;;;;;;;17.35;10.55;;;;;;;3.33;100.00;100843.31;5071575;28;20060;-32
2021/12/11 03:37:18;;;;;;;18.67;11.38;;;;;;;3.31;100.00;100851.81;5072216;28;20048;-36
2021/12/11 03:39:50;;;;;;;18.98;10.80;;;;;;;3.32;100.00;100855.41;5072101;28;20059;-35
2021/12/11 03:42:23;;;;;;;18.73;10.23;;;;;;;3.31;100.00;100856.50;5070509;28;20440;-36
2021/12/11 03:44:51;;;;;;;20.65;10.73;;;;;;;3.29;100.00;100866.94;5068873;28;20048;-38
2021/12/11 03:47:22;;;;;;;19.25;10.88;;;;;;;3.29;100.00;100865.03;5070814;28;20131;-35
2021/12/11 03:49:50;;;;;;;17.38;9.98;;;;;;;3.29;100.00;100864.19;5072006;28;20036;-34
2021/12/11 03:52:19;;;;;;;19.48;10.98;;;;;;;3.28;100.00;100863.34;5071612;28;20559;-31
2021/12/11 03:54:51;;;;;;;20.42;10.10;;;;;;;3.29;100.00;100872.47;5071121;28;20074;-35
2021/12/11 03:57:22;;;;;;;19.13;10.43;;;;;;;3.28;100.00;100874.38;5071635;28;20052;-38
2021/12/11 03:59:50;;;;;;;16.73;9.85;;;;;;;3.28;100.00;100884.56;5068192;28;20114;-37
2021/12/11 04:02:22;;;;;;;19.77;10.25;;;;;;;3.29;100.00;100889.00;5071388;28;20063;-33
2021/12/11 04:04:53;;;;;;;15.27;7.90;;;;;;;3.30;100.00;100907.22;5071606;28;20040;-40
2021/12/11 04:07:26;;;;;;;17.58;10.13;;;;;;;3.27;100.00;100908.56;5071576;28;20127;-36
2021/12/11 04:09:55;;;;;;;;;;;;;;;3.21;100.00;100904.03;5070912;28;20493;-37
2021/12/11 04:12:24;;;;;;;13.88;8.88;;;;;;;3.16;100.00;100909.50;5071544;28;20280;-36
2021/12/11 04:14:53;;;;;;;15.32;8.13;;;;;;;3.15;100.00;100920.75;5071085;28;20048;-32
2021/12/11 04:17:23;;;;;;;22.73;9.90;;;;;;;3.13;100.00;100925.69;5070877;28;20045;-32
2021/12/11 04:19:55;;;;;;;15.32;9.45;;;;;;;3.10;100.00;100940.78;5071289;28;20040;-30
2021/12/11 04:22:23;;;;;;;21.13;11.23;;;;;;;3.05;100.00;100947.03;5070568;28;20048;-31
2021/12/11 04:24:52;;;;;;;20.35;10.68;;;;;;;3.03;100.00;100954.72;5071157;28;20278;-30
2021/12/11 04:27:24;;;;;;;18.88;10.45;;;;;;;3.02;100.00;100963.25;5071366;28;20048;-38
2021/12/11 04:29:53;;;;;;;13.77;9.07;;;;;;;2.99;100.00;100975.63;5070302;28;20166;-33
2021/12/11 04:32:26;;;;;;;13.30;8.27;;;;;;;3.01;100.00;100989.13;5071123;28;20052;-31
2021/12/11 04:34:54;;;;;;;13.30;9.13;;;;;;;3.01;100.00;100992.72;5070931;28;20128;-28
2021/12/11 04:37:25;;;;;;;15.68;7.82;;;;;;;3.02;100.00;100999.91;5070499;28;20049;-33
2021/12/11 04:40:00;;;;;;;14.40;8.73;;;;;;;3.04;100.00;100991.41;5071090;28;20067;-34
2021/12/11 04:42:47;;;;;;;13.38;7.88;;;;;;;3.04;100.00;100985.88;5069617;28;20051;-37
2021/12/11 04:45:20;;;;;;;13.80;7.32;;;;;;;3.01;100.00;100992.72;5070224;28;20044;-33
2021/12/11 04:47:53;;;;;;;13.25;8.10;;;;;;;3.01;100.00;101006.50;5071249;28;20047;-33
2021/12/11 04:50:29;;;;;;;10.88;5.95;;;;;;;3.02;100.00;101005.44;5070085;28;20048;-35
2021/12/11 04:52:59;;;;;;;8.20;5.00;;;;;;;3.05;100.00;101018.72;5070897;28;20044;-31
2021/12/11 04:55:49;;;;;;;7.85;5.13;;;;;;;3.08;100.00;101026.50;5070550;28;20081;-34
2021/12/11 05:01:25;;;;;;;7.05;4.70;;;;;;;3.13;100.00;101039.56;5077143;28;20049;-29
2021/12/11 05:06:50;;;;;;;7.65;4.65;;;;;;;3.17;100.00;101039.91;5070112;28;20515;-31
2021/12/11 05:09:25;;;;;;;7.47;4.55;;;;;;;3.19;100.00;101043.25;5076812;28;20757;-32
2021/12/11 05:12:10;;;;;;;7.82;4.85;;;;;;;3.21;100.00;101046.59;5074625;28;20045;-33
2021/12/11 05:14:41;;;;;;;9.00;5.45;;;;;;;3.22;100.00;101049.09;5074184;28;20052;-38
2021/12/11 05:17:11;;;;;;;9.10;5.47;;;;;;;3.24;100.00;101062.63;5077082;28;20052;-32
2021/12/11 05:19:40;;;;;;;7.65;4.85;;;;;;;3.26;100.00;101068.75;5076971;28;20055;-33
2021/12/11 05:22:09;;;;;;;7.93;5.50;;;;;;;3.27;100.00;101070.44;5076435;28;20052;-34
2021/12/11 05:24:38;;;;;;;9.23;5.75;;;;;;;3.28;100.00;101075.69;5077721;28;20053;-36
2021/12/11 05:27:07;;;;;;;9.93;6.03;;;;;;;3.30;100.00;101078.22;5076126;28;20048;-33
2021/12/11 05:29:35;;;;;;;11.55;6.90;;;;;;;3.27;100.00;101089.72;5076217;28;20410;-39
2021/12/11 05:32:08;;;;;;;9.77;6.45;;;;;;;3.26;100.00;101085.28;5077056;28;20048;-34
2021/12/11 05:34:39;;;;;;;11.75;6.25;;;;;;;3.25;100.00;101092.72;5066653;28;20044;-34
2021/12/11 05:37:07;;;;;;;9.38;5.80;;;;;;;3.23;100.00;101100.41;5076920;28;20059;-35
2021/12/11 05:39:35;;;;;;;8.27;5.60;;;;;;;3.21;100.00;101104.50;5076583;28;20036;-29
2021/12/11 05:42:04;;;;;;;9.65;5.55;;;;;;;3.20;100.00;101106.41;5076761;28;20036;-33
2021/12/11 05:44:32;;;;;;;16.20;8.18;;;;;;;3.19;100.00;101123.22;5077244;28;20064;-31
2021/12/11 05:47:00;;;;;;;9.80;6.65;;;;;;;3.17;100.00;101128.16;5076349;28;20089;-37
2021/12/11 05:49:29;;;;;;;10.43;5.95;;;;;;;3.13;100.00;101132.47;5075961;28;20036;-36
2021/12/11 05:51:58;;;;;;;14.98;9.18;;;;;;;3.13;100.00;101140.72;5076909;28;20379;-33
2021/12/11 05:54:29;;;;;;;9.73;6.40;;;;;;;3.10;100.00;101139.28;5076588;28;20175;-29
2021/12/11 05:57:02;;;;;;;8.80;5.85;;;;;;;3.08;100.00;101144.22;5076999;28;20044;-35
2021/12/11 05:59:31;;;;;;;8.10;5.15;;;;;;;3.05;100.00;101141.94;5076877;28;20067;-34
2021/12/11 06:02:02;;;;;;;8.77;5.47;;;;;;;3.04;100.00;101132.00;5076751;28;20037;-30
2021/12/11 06:04:35;;;;;;;7.97;5.10;;;;;;;3.01;100.00;101141.56;5076611;28;20053;-37
2021/12/11 06:07:06;;;;;;;8.75;5.43;;;;;;;2.98;100.00;101136.56;5077016;28;20501;-35
2021/12/11 06:09:35;;;;;;;8.20;4.90;;;;;;;2.95;100.00;101137.06;5075400;28;20520;-33
2021/12/11 06:12:07;;;;;;;8.43;5.03;;;;;;;2.93;100.00;101143.88;5073578;28;20058;-31
2021/12/11 06:14:35;;;;;;;6.90;4.65;;;;;;;2.90;100.00;101149.88;5073589;28;20071;-33
2021/12/11 06:17:07;;;;;;;7.07;4.40;;;;;;;2.87;100.00;101156.72;5073586;28;20044;-34
2021/12/11 06:19:36;;;;;;;6.97;3.95;;;;;;;2.80;100.00;101167.00;5073565;28;20045;-32
2021/12/11 06:22:05;;;;;;;8.10;4.13;;;;;;;2.76;100.00;101176.84;5073489;28;20063;-36
2021/12/11 06:24:33;;;;;;;6.05;4.00;;;;;;;2.72;100.00;101186.66;5072692;28;20044;-33
2021/12/11 06:27:02;;;;;;;6.72;4.68;;;;;;;2.67;100.00;101184.63;5073568;28;20485;-30
2021/12/11 06:29:30;;;;;;;6.57;4.35;;;;;;;2.64;100.00;101195.28;5072241;28;20044;-35
2021/12/11 06:31:58;;;;;;;7.53;4.53;;;;;;;2.60;100.00;101216.16;5073361;28;20051;-30
2021/12/11 06:34:26;;;;;;;7.03;4.00;;;;;;;2.54;100.00;101222.59;5073162;28;20052;-35
2021/12/11 06:36:55;;;;;;;7.63;4.70;;;;;;;2.48;100.00;101223.53;5072621;28;20051;-39
2021/12/11 06:39:25;;;;;;;6.15;4.05;;;;;;;2.42;100.00;101225.31;5072705;28;20070;-33
2021/12/11 06:41:56;;;;;;;8.60;5.80;;;;;;;2.36;100.00;101221.59;5073234;28;20053;-33
2021/12/11 06:44:28;;;;;;;6.10;4.22;;;;;;;2.30;100.00;101230.81;5072481;28;20052;-31
2021/12/11 06:46:57;;;;;;;5.67;3.77;;;;;;;2.25;100.00;101238.94;5062108;28;20044;-36
2021/12/11 06:49:26;;;;;;;6.05;3.90;;;;;;;2.20;100.00;101232.47;5072602;28;20287;-36
2021/12/11 06:51:56;;;;;;;6.47;4.10;;;;;;;2.16;100.00;101251.38;5072678;28;20049;-31
2021/12/11 06:54:25;;;;;;;6.93;4.05;;;;;;;2.10;100.00;101249.53;5072430;28;20053;-37
2021/12/11 06:56:53;;;;;;;7.18;4.28;;;;;;;2.05;100.00;101258.50;5072323;28;20408;-33
2021/12/11 06:59:22;;;;;;;7.18;4.20;;;;;;;2.01;100.00;101259.19;5072809;28;20465;-29
2021/12/11 07:01:50;;;;;;;6.10;3.80;;;;;;;1.97;100.00;101260.75;5072591;28;20261;-31
2021/12/11 07:04:18;;;;;;;8.10;5.13;;;;;;;1.93;100.00;101259.53;5072175;28;20048;-33
2021/12/11 07:06:48;;;;;;;6.47;4.03;;;;;;;1.90;100.00;101266.31;5070856;28;20793;-34
2021/12/11 07:09:18;;;;;;;6.50;4.10;;;;;;;1.85;100.00;101273.59;5068761;28;20056;-37
2021/12/11 07:11:48;;;;;;;6.93;4.40;;;;;;;1.81;100.00;101275.13;5070651;28;20048;-35
2021/12/11 07:14:18;;;;;;;7.15;4.53;;;;;;;1.75;100.00;101276.91;5071583;28;20049;-35
2021/12/11 07:16:47;;;;;;;6.97;3.95;;;;;;;1.70;100.00;101280.34;5070549;28;20063;-41
2021/12/11 07:19:16;;;;;;;6.63;4.20;;;;;;;1.66;100.00;101297.53;5070453;28;20044;-36
2021/12/11 07:21:46;;;;;;;8.13;4.22;;;;;;;1.61;100.00;101300.13;5069687;28;20059;-34
2021/12/11 07:24:19;;;;;;;7.68;4.85;;;;;;;1.56;100.00;101303.56;5070994;28;20139;-30
2021/12/11 07:26:49;;;;;;;7.13;4.55;;;;;;;1.51;100.00;101306.16;5065770;28;20459;-33
2021/12/11 07:29:20;;;;;;;6.68;4.22;;;;;;;1.48;100.00;101317.63;5070501;28;20052;-29
2021/12/11 07:31:50;;;;;;;7.90;4.13;;;;;;;1.45;100.00;101323.56;5069683;28;20047;-29
2021/12/11 07:34:18;;;;;;;7.10;4.38;;;;;;;1.45;100.00;101322.72;5070166;28;20363;-38
2021/12/11 07:36:46;;;;;;;9.45;5.82;;;;;;;1.46;100.00;101325.25;5069805;28;20044;-33
2021/12/11 07:39:17;;;;;;;14.48;7.85;;;;;;;1.50;100.00;101325.66;5069041;28;20040;-37
2021/12/11 07:41:47;;;;;;;9.30;5.60;;;;;;;1.53;100.00;101344.44;5068922;28;20054;-38
2021/12/11 07:44:15;;;;;;;10.02;7.05;;;;;;;1.57;100.00;101345.69;5069231;28;20056;-30
2021/12/11 07:46:43;;;;;;;13.68;7.82;;;;;;;1.64;100.00;101357.44;5069443;28;20032;-34
2021/12/11 07:49:11;;;;;;;11.45;6.65;;;;;;;1.71;100.00;101358.19;5070789;28;20071;-35
2021/12/11 07:51:40;;;;;;;12.52;6.05;;;;;;;1.78;100.00;101361.72;5070185;28;20056;-38
2021/12/11 07:54:09;;;;;;;11.43;6.53;;;;;;;1.84;100.00;101369.03;5068719;28;20517;-35
2021/12/11 07:56:37;;;;;;;11.55;6.18;;;;;;;1.89;100.00;101373.88;5070493;28;20063;-36
2021/12/11 07:59:09;;;;;;;10.30;6.45;;;;;;;1.94;100.00;101380.38;5070299;28;20049;-35
2021/12/11 08:01:39;;;;;;;10.57;6.53;;;;;;;1.99;100.00;101382.44;5067776;28;20041;-31
2021/12/11 08:04:07;;;;;;;14.95;9.35;;;;;;;2.04;100.00;101377.91;5069631;28;20074;-29
2021/12/11 08:06:36;;;;;;;16.20;9.38;;;;;;;2.10;100.00;101389.06;5070151;28;20421;-29
2021/12/11 08:09:06;;;;;;;14.00;6.95;;;;;;;2.15;100.00;101380.97;5069228;28;20051;-29
2021/12/11 08:11:35;;;;;;;20.27;9.90;;;;;;;2.23;100.00;101389.75;5070028;28;20041;-31
2021/12/11 08:14:08;;;;;;;20.75;9.88;;;;;;;2.31;100.00;101391.34;5070024;28;20048;-31
2021/12/11 08:16:46;;;;;;;17.95;9.07;;;;;;;2.39;100.00;101391.88;5070276;28;20035;-32
2021/12/11 08:19:16;;;;;;;21.00;9.48;;;;;;;2.46;100.00;101399.19;5070123;28;20428;-39
2021/12/11 08:21:45;;;;;;;18.42;8.70;;;;;;;2.52;100.00;101409.28;5069439;28;20051;-37
2021/12/11 08:24:13;;;;;;;22.55;10.63;;;;;;;2.56;100.00;101407.75;5069631;28;20081;-29
2021/12/11 08:26:41;;;;;;;19.10;9.00;;;;;;;2.61;100.00;101416.16;5069714;28;20532;-36
2021/12/11 08:29:12;;;;;;;18.95;8.27;;;;;;;2.66;100.00;101403.38;5068964;28;20078;-29
2021/12/11 08:31:43;;;;;;;21.65;10.48;;;;;;;2.71;100.00;101416.44;5069795;28;20055;-38
2021/12/11 08:34:12;;;;;;;24.73;10.07;;;;;;;2.74;100.00;101416.81;5069289;28;20098;-35
2021/12/11 08:36:41;;;;;;;24.17;10.02;;;;;;;2.79;100.00;101416.13;5069030;28;20291;-34
2021/12/11 08:39:12;;;;;;;24.75;11.45;;;;;;;2.85;100.00;101417.94;5066381;28;20101;-34
2021/12/11 08:41:41;;;;;;;36.20;13.63;;;;;;;2.91;100.00;101418.91;5070243;28;20086;-28
2021/12/11 08:44:13;;;;;;;29.35;11.98;;;;;;;2.97;100.00;101410.56;5069119;28;20041;-29
2021/12/11 08:46:47;;;;;;;23.13;11.25;;;;;;;3.05;100.00;101418.47;5070979;28;20275;-35
2021/12/11 08:49:20;;;;;;;25.95;13.00;;;;;;;3.12;100.00;101423.88;5070346;28;20044;-33
2021/12/11 08:52:00;;;;;;;30.63;12.95;;;;;;;3.19;100.00;101421.88;5070907;28;20421;-30
2021/12/11 08:54:30;;;;;;;33.30;13.35;;;;;;;3.25;100.00;101425.56;5070555;28;20051;-33
2021/12/11 08:57:00;;;;;;;30.00;11.77;;;;;;;3.32;100.00;101432.69;5070101;28;20040;-31
2021/12/11 08:59:30;;;;;;;42.67;14.40;;;;;;;3.42;100.00;101437.59;5070225;28;20060;-33
2021/12/11 09:02:05;;;;;;;26.75;12.32;;;;;;;3.52;100.00;101442.53;5071263;28;20054;-39
2021/12/11 09:04:37;;;;;;;35.17;14.48;;;;;;;3.59;100.00;101441.34;5069723;28;20044;-38
2021/12/11 09:07:09;;;;;;;30.90;12.48;;;;;;;3.68;100.00;101448.19;5070479;28;20052;-28
2021/12/11 09:09:41;;;;;;;28.70;10.80;;;;;;;3.74;100.00;101452.75;5070236;28;20047;-32
2021/12/11 09:12:13;;;;;;;30.95;12.02;;;;;;;3.83;100.00;101447.69;5069976;28;20054;-33
2021/12/11 09:14:48;;;;;;;38.45;14.30;;;;;;;3.90;100.00;101456.72;5070196;28;20040;-33
2021/12/11 09:17:23;;;;;;;39.30;12.80;;;;;;;3.97;100.00;101453.84;5069904;28;20139;-38
2021/12/11 09:19:57;;;;;;;31.35;9.30;;;;;;;4.01;100.00;101449.50;5069291;28;20401;-33
2021/12/11 09:22:29;;;;;;;31.60;12.13;;;;;;;4.21;100.00;101458.22;5070754;28;20045;-36
2021/12/11 09:25:03;;;;;;;44.53;14.45;;;;;;;4.61;100.00;101472.06;5069519;28;20054;-35
2021/12/11 09:27:40;;;;;;;43.67;14.85;;;;;;;5.15;100.00;101478.13;5070561;28;20048;-32
2021/12/11 09:30:16;;;;;;;37.03;13.15;;;;;;;5.71;100.00;101477.19;5069864;28;20506;-36
2021/12/11 09:32:50;;;;;;;35.45;12.55;;;;;;;6.23;100.00;101485.22;5069366;28;20585;-35
2021/12/11 09:35:25;;;;;;;32.67;12.13;;;;;;;6.65;100.00;101479.97;5069946;28;20465;-33
2021/12/11 09:37:56;;;;;;;33.63;12.85;;;;;;;7.05;100.00;101481.53;5070558;28;20051;-33
2021/12/11 09:40:50;;;;;;;28.30;12.23;;;;;;;7.45;100.00;101486.66;5069173;28;20051;-31
2021/12/11 09:43:31;;;;;;;35.58;12.75;;;;;;;7.81;100.00;101485.88;5070635;28;20049;-31
2021/12/11 09:46:00;;;;;;;31.30;11.65;;;;;;;8.14;100.00;101493.09;5071507;28;20459;-31
2021/12/11 09:48:28;;;;;;;38.65;13.25;;;;;;;8.44;100.00;101491.63;5074350;28;20056;-32
2021/12/11 09:51:03;;;;;;;24.83;10.30;;;;;;;8.64;100.00;101506.47;5073509;28;20096;-33
2021/12/11 09:53:35;;;;;;;30.00;11.50;;;;;;;8.85;100.00;101499.06;5073488;28;20055;-32
2021/12/11 09:56:08;;;;;;;26.30;9.90;;;;;;;9.11;100.00;101497.22;5073679;28;20131;-36
2021/12/11 09:58:38;;;;;;;;;;;;;;;9.39;100.00;101506.19;5074273;28;20413;-31
2021/12/11 10:01:10;;;;;;;18.90;7.72;;;;;;;9.56;100.00;101513.19;5073142;28;19944;-30
2021/12/11 10:03:45;;;;;;;17.67;8.35;;;;;;;9.60;100.00;101521.81;5073991;28;20044;-34
2021/12/11 10:06:37;;;;;;;17.73;8.18;;;;;;;9.35;100.00;101525.41;5073306;28;20060;-36
2021/12/11 10:09:17;;;;;;;15.50;7.30;;;;;;;8.96;100.00;101523.06;5066005;28;20049;-34
2021/12/11 10:11:53;;;;;;;16.55;7.13;;;;;;;8.85;100.00;101518.53;5073524;28;20152;-33
2021/12/11 10:14:26;;;;;;;17.10;8.18;;;;;;;8.97;100.00;101529.47;5073100;28;20053;-31
2021/12/11 10:16:58;;;;;;;11.63;6.07;;;;;;;9.00;100.00;101531.69;5073470;28;20386;-39
2021/12/11 10:19:29;;;;;;;13.43;6.93;;;;;;;9.04;100.00;101540.31;5074125;28;20128;-29
2021/12/11 10:22:04;;;;;;;16.50;7.65;;;;;;;9.09;100.00;101541.19;5072731;28;20563;-36
2021/12/11 10:24:34;;;;;;;11.50;6.43;;;;;;;9.18;100.00;101547.91;5073648;28;20059;-35
2021/12/11 10:27:05;;;;;;;11.80;5.85;;;;;;;9.32;100.00;101537.09;5072982;28;20040;-32
2021/12/11 10:29:36;;;;;;;13.40;6.10;;;;;;;9.41;100.00;101538.22;5073166;28;20058;-34
2021/12/11 10:32:09;;;;;;;13.20;5.90;;;;;;;9.50;100.00;101538.53;5072920;28;20055;-32
2021/12/11 10:34:39;;;;;;;12.35;5.70;;;;;;;9.61;100.00;101540.19;5063232;28;20052;-32
2021/12/11 10:37:10;;;;;;;13.23;5.43;;;;;;;9.58;100.00;101533.25;5072596;28;20052;-34
2021/12/11 10:39:42;;;;;;;13.27;5.47;;;;;;;9.59;100.00;101540.47;5073549;28;20045;-34
2021/12/11 10:42:10;;;;;;;13.65;5.55;;;;;;;9.58;100.00;101544.41;5072279;28;20143;-35
2021/12/11 10:44:42;;;;;;;12.85;5.53;;;;;;;9.57;100.00;101537.16;5073179;28;20048;-32
2021/12/11 10:47:13;;;;;;;14.27;5.32;;;;;;;9.67;100.00;101531.59;5072837;28;20543;-34
2021/12/11 10:49:59;;;;;;;10.20;4.65;;;;;;;9.71;100.00;101536.59;5072459;28;20067;-32
2021/12/11 10:52:29;;;;;;;14.30;5.32;;;;;;;9.72;100.00;101539.13;5072692;28;20482;-35
2021/12/11 10:55:02;;;;;;;10.25;5.20;;;;;;;9.67;100.00;101547.47;5073092;28;20113;-39
2021/12/11 10:57:31;;;;;;;13.40;4.57;;;;;;;9.55;100.00;101556.09;5072120;28;20040;-37
2021/12/11 11:00:02;;;;;;;6.72;3.40;;;;;;;9.42;100.00;101562.16;5069549;28;20051;-30
2021/12/11 11:02:32;;;;;;;15.13;4.38;;;;;;;9.32;100.00;101562.16;5072554;28;20040;-30
2021/12/11 11:05:06;;;;;;;14.82;4.20;;;;;;;9.16;100.00;101560.44;5071494;28;20505;-31
2021/12/11 11:07:35;;;;;;;11.68;4.20;;;;;;;9.09;100.00;101559.84;5072763;28;20052;-38
2021/12/11 11:10:08;;;;;;;11.43;4.18;;;;;;;9.09;100.00;101571.81;5071632;28;20043;-34
2021/12/11 11:12:36;;;;;;;9.93;3.33;;;;;;;9.14;100.00;101574.63;5072459;28;20420;-37
2021/12/11 11:15:07;;;;;;;9.50;2.67;;;;;;;9.27;100.00;101567.69;5072441;28;20079;-31
2021/12/11 11:17:35;;;;;;;7.80;2.20;;;;;;;9.38;100.00;101569.44;5071821;28;20093;-34
2021/12/11 11:20:05;;;;;;;5.90;2.05;;;;;;;9.51;100.00;101562.50;5072278;28;20049;-35
2021/12/11 11:22:36;;;;;;;10.13;1.85;;;;;;;9.73;100.00;101568.66;5072519;28;20128;-34
2021/12/11 11:25:10;;;;;;;4.45;1.00;;;;;;;9.98;100.00;101573.44;5067568;28;20050;-32
2021/12/11 11:27:38;;;;;;;5.32;0.70;;;;;;;10.16;100.00;101570.09;5056652;28;20040;-32
2021/12/11 11:30:14;;;;;;;5.03;0.95;;;;;;;10.23;100.00;101580.97;5072332;28;20045;-37
2021/12/11 11:32:42;;;;;;;5.05;0.80;;;;;;;10.26;100.00;101577.63;5071529;28;20456;-33
2021/12/11 11:35:13;;;;;;;3.35;0.50;;;;;;;10.24;100.00;101575.13;5072095;28;20048;-31
2021/12/11 11:37:46;;;;;;;2.55;0.50;;;;;;;10.12;100.00;101580.13;5072019;28;20102;-36
2021/12/11 11:40:17;;;;;;;4.93;0.65;;;;;;;10.09;100.00;101569.53;5071263;28;20477;-29
2021/12/11 11:42:44;;;;;;;5.05;0.80;;;;;;;10.16;100.00;101583.19;5072081;28;20048;-34